Terminal Aerodrome Forecast
Issued by NWS

Home | Current Version | Previous Version | Text Only | Print | Product List | Glossary On
Versions: 1 2 3 4 5 6 7 8 9 10 11 12
000
FTUS45 KVEF 200500
TAFBIH
TAF
KBIH 200520Z 2006/2106 33006KT P6SM SCT250
     FM201600 VRB04KT P6SM SCT250
     FM201900 16009KT P6SM FEW110=

USA.gov is the U.S. government's official web portal to all federal, state and local government web resources and services.